• Join FlightAware (Why Join?)
  • Login
  • US Flag 
05:55AM EDT


 

Airport Tracker/Info


-or-


 

Live Flight TrackerFlight Track Log ✈ N401SM ✈ 24-Sep-2013 ✈ KSSI - KPDK

Flight Track Log - Related Links

Times and Time Zones

All times are in EDT time to prevent confusion due to time zone crossing. See the N401SM flight status page for this flight to view local times or setup timezone preferences in your user account.

Time Position Orientation Groundspeed Altitude Reporting Facility
EDT Latitude Longitude Course Direction KTS MPH feet Rate Location/Type
03:55PM 31.2228 -81.4447 316° Northwest 188 216 3,800  Level Jacksonville Center
03:56PM 31.2567 -81.4781 320° Northwest 158 182 5,400 1,620 Climbing Jacksonville Center
03:57PM 31.4234 -81.6703 320° Northwest  Level Estimated
03:57PM 31.2883 -81.5117 318° Northwest 158 182 7,100  Level Jacksonville Center
03:58PM 31.3222 -81.5453 320° Northwest 163 188 8,700 1,560 Climbing Jacksonville Center
03:59PM 31.3622 -81.5883 317° Northwest 169 194 10,300 1,620 Climbing Jacksonville Center
04:00PM 31.3981 -81.6244 319° Northwest 176 203 12,000 1,500 Climbing Jacksonville Center
04:01PM 31.4381 -81.6628 321° Northwest 176 203 13,400 1,380 Climbing Jacksonville Center
04:02PM 31.4697 -81.6967 318° Northwest 176 203 14,800 1,320 Climbing Jacksonville Center
04:03PM 31.5078 -81.7350 319° Northwest 176 203 16,100 1,320 Climbing Jacksonville Center
04:04PM 31.5500 -81.7808 317° Northwest 176 203 17,500 1,260 Climbing Jacksonville Center
04:05PM 31.5919 -81.8194 322° Northwest 186 214 18,700 1,080 Climbing Jacksonville Center
04:06PM 31.6300 -81.8628 316° Northwest 191 220 19,700 660 Climbing Jacksonville Center
04:07PM 31.6700 -81.9039 319° Northwest 196 226 20,100 180 Climbing Jacksonville Center
04:08PM 31.7183 -81.9522 320° Northwest 219 252 20,100  Level Jacksonville Center
04:09PM 31.7753 -82.0128 318° Northwest 242 278 20,100 -60 Level Jacksonville Center
04:10PM 31.8278 -82.0636 321° Northwest 242 278 20,000 -60 Descending Jacksonville Center
04:11PM 31.8803 -82.1194 318° Northwest 242 278 20,000  Level Jacksonville Center
04:12PM 31.9286 -82.1681 320° Northwest 247 284 20,000  Level Jacksonville Center
04:13PM 31.9872 -82.2289 319° Northwest 247 284 20,000  Level Jacksonville Center
04:14PM 32.0397 -82.2847 318° Northwest 247 284 20,000  Level Jacksonville Center
04:17PM 32.1975 -82.4483 319° Northwest 243 280 20,000  Level Atlanta Center
04:18PM 32.2547 -82.5086 318° Northwest 243 280 20,000  Level Atlanta Center
04:19PM 32.3075 -82.5619 320° Northwest 247 284 20,000  Level Atlanta Center
04:20PM 32.3603 -82.6175 318° Northwest 230 265 20,000  Level Atlanta Center
04:21PM 32.4111 -82.6708 318° Northwest 241 277 20,000  Level Atlanta Center
04:22PM 32.4617 -82.7242 318° Northwest 246 283 20,000  Level Atlanta Center
04:23PM 32.5144 -82.7803 318° Northwest 251 289 20,000 -540 Level Atlanta Center
04:24PM 32.5736 -82.8408 319° Northwest 250 288 19,000 -1,020 Descending Atlanta Center
04:25PM 32.6347 -82.9017 320° Northwest 263 303 18,000 -960 Descending Atlanta Center
04:26PM 32.6872 -82.9553 319° Northwest 272 313 17,100 -900 Descending Atlanta Center
04:27PM 32.7506 -83.0214 319° Northwest 284 327 16,200 -1,020 Descending Atlanta Center
04:28PM 32.8117 -83.0822 320° Northwest 284 327 15,100 -1,020 Descending Atlanta Center
04:29PM 32.8725 -83.1411 321° Northwest 278 320 14,200 -960 Descending Atlanta Center
04:30PM 32.9294 -83.1997 319° Northwest 278 320 13,200 -960 Descending Atlanta Center
04:31PM 32.9839 -83.2564 319° Northwest 284 327 12,300 -960 Descending Atlanta Center
04:32PM 33.0428 -83.3153 320° Northwest 284 327 11,300 -1,020 Descending Atlanta Center
04:33PM 33.1058 -83.3792 320° Northwest 278 320 10,300 -1,020 Descending Atlanta Center
04:34PM 33.1644 -83.4383 320° Northwest 273 314 9,300 -1,320 Descending Atlanta Center
04:36PM 33.2833 -83.5667 318° Northwest 234 269 5,900 -1,020 Descending Atlanta TRACON
04:37PM 33.3333 -83.6167 320° Northwest 231 266 5,900  Level Atlanta TRACON
04:38PM 33.3833 -83.6667 320° Northwest 236 272 5,900 -420 Level Atlanta TRACON
04:39PM 33.4500 -83.7000 337° Northwest 240 276 5,100 -900 Descending Atlanta TRACON
04:40PM 33.5167 -83.7333 337° Northwest 252 290 4,100 -600 Descending Atlanta TRACON
04:41PM 33.5667 -83.7833 320° Northwest 248 285 4,000 -60 Descending Atlanta TRACON
04:42PM 33.6167 -83.8167 331° Northwest 239 275 4,000  Level Atlanta TRACON
04:43PM 33.6667 -83.8667 320° Northwest 239 275 4,000  Level Atlanta TRACON
04:44PM 33.7333 -83.9000 337° Northwest 241 277 4,000  Level Atlanta TRACON
04:45PM 33.7833 -83.9500 320° Northwest 238 274 4,000  Level Atlanta TRACON
04:46PM 33.8333 -83.9833 331° Northwest 237 273 4,000  Level Atlanta TRACON
04:47PM 33.8833 -84.0333 320° Northwest 235 270 4,000  Level Atlanta TRACON
04:48PM 33.9500 -84.0833 328° Northwest 239 275 4,000 -60 Level Atlanta TRACON
04:49PM 34.0000 -84.1167 331° Northwest 203 234 3,900  Descending Atlanta TRACON
04:50PM 34.0500 -84.1500 331° Northwest 196 226 4,000 -60 Climbing Atlanta TRACON
04:51PM 34.0500 -84.2167 270° West 192 221 3,800 -540 Descending Atlanta TRACON
04:52PM 34.0167 -84.2333 203° Southwest 176 203 3,000 -600 Descending Atlanta TRACON
04:53PM 33.9667 -84.2500 195° South 164 189 2,800 -540 Descending Atlanta TRACON
04:54PM 33.9333 -84.2833 220° Southwest 157 181 2,000 -780 Descending Atlanta TRACON
04:55PM 33.9000 -84.3000 203° Southwest 114 131 1,300 -720 Descending Atlanta TRACON
04:57PM 33.8756 -84.3020 239° Southwest  Level Estimated
05:04PM 33.8756 -84.3020 239° Southwest  Level Estimated